NTAATNCM

Guest
Details From NTAA - Faaa
To TNCM - St Maarten - Princess Juliana Intl
Flight Number -
Tags Generated
Created
Modified
Stats Distance 5,537 nm / 10,255 km
Max Altitude 0 ft / 0 m
Waypoints 7
Social Downloads 1
Likes 0
Share VATSIM

Download

Looking for another format? Having issues loading an existing format? Contact us
Advertisement - Login to hide

Notes

Generated

Route

NTAA RAMON OROSA BEROX DAKES PJM02 TNCM

ID Type Via Altitude Latitude Longitude Leg Dist Tot Dist Heading (true) Name
O NTAA APT - 0 ft / 0 m -17.56288˚ -149.62043˚ - 0 nm - -
RAMON FIX - 0 ft / 0 m 10.06791˚ -84.42147˚ 4207 nm 4207 nm 72° / 67° -
OROSA FIX - 0 ft / 0 m 14.31167˚ -74.00000˚ 662 nm 4870 nm 66° / 69° -
BEROX FIX - 0 ft / 0 m 16.00000˚ -70.06667˚ 249 nm 5119 nm 66° / 67° -
DAKES FIX - 0 ft / 0 m 17.04805˚ -66.99962˚ 187 nm 5307 nm 70° / 71° -
PJM02 FIX - 0 ft / 0 m 18.03461˚ -63.15309˚ 228 nm 5535 nm 74° / 76° -
O TNCM APT - 0 ft / 0 m 18.03937˚ -63.11961˚ 1 nm 5537 nm 81° / 82° -

Altitude Profile

Advertisement - Login to hide

Weather


0- 5 10 15 20 25 30 35+ Temperature / ° C

Clouds and Precipitation
Forecast for 2017-12-13 18:00 UTC. Updated 2 hours ago

Ground ~20,000 ft ~40,000 ft Winds

NTAA

Details ICAO NTAA (PPT)
Name Faaa
Region French Polynesia
Timezone Pacific/Tahiti (UTC-10.0)
Stats Elevation 5 ft / 2 m (AMSL)
Location -17.553765° -149.607255°
Runways 1
Magnetic Variation 12.875° E

METAR

NTAA 131900Z 05007KT 9999 FEW020 SCT300 30/24 Q1010 NOSIG

Decode

TAF

TAF NTAA 131700Z 1318/1424 04006KT 9999 FEW023 PROB30 TEMPO 1323/1403 3000 SHRA FEW016CB SCT018 BKN040

Decode

Departure Runways

ID Width Length Bearing (true) Bearing (mag) Surface Threshold Offset Overrun Length
04 148 ft / 45 m 11,323 ft / 3,451 m 54.04° 41.16° Asphalt 1,099 ft / 335 m 0 ft / 0 m
22 148 ft / 45 m 11,323 ft / 3,451 m 234.03° 221.15° Asphalt 479 ft / 146 m 0 ft / 0 m

TNCM

Details ICAO TNCM (SXM)
Name St Maarten - Princess Juliana Intl
Region Caribbean Netherlands, Aruba, Curaçao, Sint Maarten
Timezone Unknown (UTC+0.0)
Stats Elevation 12 ft / 4 m (AMSL)
Location 18.040889° -63.108974°
Runways 1
Magnetic Variation 14.325° W

METAR

TNCM 131900Z 13007KT 100V170 9999 FEW021 28/23 Q1015 A2998 NOSIG

Decode

TAF

TNCM 131739Z 1318/1418 14010KT P6SM VCSH FEW020 FM132300 09006KT P6SM SCT022 FM141200 13012KT P6SM FEW022

Decode

Destination Runways

ID Width Length Bearing (true) Bearing (mag) Surface Threshold Offset Overrun Length
10 148 ft / 45 m 7,464 ft / 2,275 m 81.43° 95.76° Asphalt 0 ft / 0 m 151 ft / 46 m
28 148 ft / 45 m 7,464 ft / 2,275 m 261.44° 275.77° Asphalt 397 ft / 121 m 0 ft / 0 m

Popular Alternatives